Time;durP1;ratioP1;P1;durP2;ratioP2;P2;SDS_P1;SDS_P2;PMS_P1;PMS_P2;Temp;Humidity;BMP_temperature;BMP_pressure;BME280_temperature;BME280_humidity;BME280_pressure;Samples;Min_cycle;Max_cycle;Signal;HPM_P1;HPM_P2
2023/08/01 00:00:07;;;;;;;;;1.50;1.50;;;;;17.53;78.78;99829.13;4988613;28;8913;-67
2023/08/01 00:02:42;;;;;;;;;1.00;1.00;;;;;17.54;79.14;99827.22;5013038;28;8851;-67
2023/08/01 00:05:09;;;;;;;;;3.25;2.00;;;;;17.50;79.08;99820.66;4994795;28;8869;-66
2023/08/01 00:07:35;;;;;;;;;2.50;2.50;;;;;17.48;79.12;99820.94;5023827;28;8902;-66
2023/08/01 00:10:04;;;;;;;;;1.00;1.00;;;;;17.49;79.53;99813.59;5010676;28;9521;-67
2023/08/01 00:12:33;;;;;;;;;0.25;0.25;;;;;17.49;79.42;99816.31;4991460;28;8867;-67
2023/08/01 00:15:00;;;;;;;;;2.00;1.25;;;;;17.46;79.52;99805.94;5020441;28;8851;-67
2023/08/01 00:17:26;;;;;;;;;1.25;1.00;;;;;17.49;79.55;99813.59;5004864;28;8937;-67
2023/08/01 00:19:54;;;;;;;;;3.75;2.25;;;;;17.48;79.82;99804.63;5022011;28;8823;-67
2023/08/01 00:22:23;;;;;;;;;1.00;1.00;;;;;17.49;79.64;99810.88;4988997;28;8866;-67
2023/08/01 00:24:49;;;;;;;;;1.25;1.00;;;;;17.48;79.91;99801.09;4992709;28;8996;-68
2023/08/01 00:27:16;;;;;;;;;1.00;1.00;;;;;17.48;80.01;99804.63;4989599;28;8847;-68
2023/08/01 00:29:42;;;;;;;;;2.50;1.75;;;;;17.45;79.98;99793.44;4992444;28;8863;-67
2023/08/01 00:32:09;;;;;;;;;1.00;1.00;;;;;17.41;80.13;99789.63;4995442;28;8867;-68
2023/08/01 00:34:36;;;;;;;;;1.25;1.25;;;;;17.40;80.16;99786.09;5007050;28;8903;-67
2023/08/01 00:37:03;;;;;;;;;2.00;1.00;;;;;17.40;80.02;99782.53;4991023;28;8843;-67
2023/08/01 00:39:29;;;;;;;;;1.00;1.00;;;;;17.41;80.52;99779.53;4991567;28;8884;-67
2023/08/01 00:41:56;;;;;;;;;1.25;1.25;;;;;17.41;80.61;99776.00;4981050;28;8882;-67
2023/08/01 00:44:22;;;;;;;;;1.75;1.25;;;;;17.39;80.45;99770.03;4989698;28;8894;-67
2023/08/01 00:46:49;;;;;;;;;3.00;2.25;;;;;17.37;80.61;99767.56;5007018;28;9005;-66
2023/08/01 00:49:16;;;;;;;;;1.00;1.00;;;;;17.37;80.57;99774.91;4990226;28;8856;-66
2023/08/01 00:51:44;;;;;;;;;2.75;2.75;;;;;17.36;80.78;99767.84;4992862;28;9575;-66
2023/08/01 00:54:11;;;;;;;;;2.75;1.50;;;;;17.32;80.62;99762.09;5010825;28;8825;-66
2023/08/01 00:56:37;;;;;;;;;1.25;1.25;;;;;17.33;80.89;99766.44;4974059;28;8836;-67
2023/08/01 00:59:05;;;;;;;;;2.75;1.75;;;;;17.32;80.97;99758.56;4993218;28;8828;-66
2023/08/01 01:01:31;;;;;;;;;3.00;2.00;;;;;17.32;80.97;99758.56;4998696;28;8881;-66
2023/08/01 01:03:58;;;;;;;;;2.00;2.00;;;;;17.30;80.92;99747.97;4990853;28;8847;-67
2023/08/01 01:06:33;;;;;;;;;2.00;2.00;;;;;17.32;80.95;99755.84;4990790;28;8877;-67
2023/08/01 01:09:00;;;;;;;;;3.50;1.00;;;;;17.30;81.07;99746.06;4987420;28;8827;-67
2023/08/01 01:11:26;;;;;;;;;1.00;1.00;;;;;17.31;80.83;99741.44;4990624;28;8843;-67
2023/08/01 01:13:53;;;;;;;;;1.50;1.50;;;;;17.28;80.85;99739.25;4991634;28;8839;-67
2023/08/01 01:16:21;;;;;;;;;2.00;2.00;;;;;17.27;81.16;99741.16;5004003;28;8851;-67
2023/08/01 01:18:47;;;;;;;;;3.00;1.25;;;;;17.28;81.35;99742.78;4989710;28;8864;-67
2023/08/01 01:21:14;;;;;;;;;3.25;2.25;;;;;17.27;80.96;99746.59;4987831;28;8819;-66
2023/08/01 01:23:53;;;;;;;;;1.25;1.00;;;;;17.26;80.81;99739.50;5005748;28;9595;-66
2023/08/01 01:26:21;;;;;;;;;3.00;1.75;;;;;17.25;81.02;99740.56;4991200;28;9009;-67
2023/08/01 01:28:50;;;;;;;;;2.25;1.25;;;;;17.26;81.25;99747.69;5009611;28;8913;-67
2023/08/01 01:31:17;;;;;;;;;2.25;2.00;;;;;17.26;81.34;99742.22;5009083;28;8970;-67
2023/08/01 01:33:44;;;;;;;;;1.00;1.00;;;;;17.27;81.11;99749.31;4994808;28;8944;-67
2023/08/01 01:36:10;;;;;;;;;1.00;1.00;;;;;17.26;81.45;99742.22;4991290;28;8969;-67
2023/08/01 01:38:37;;;;;;;;;3.25;1.50;;;;;17.27;81.35;99741.16;4992055;28;8839;-67
2023/08/01 01:41:03;;;;;;;;;1.00;1.00;;;;;17.26;81.19;99744.97;4985665;28;8847;-66
2023/08/01 01:43:30;;;;;;;;;0.50;0.50;;;;;17.27;81.38;99741.16;4970591;28;8883;-67
2023/08/01 01:45:56;;;;;;;;;2.00;1.00;;;;;17.28;81.37;99736.50;5002076;28;9548;-67
2023/08/01 01:48:23;;;;;;;;;2.00;2.00;;;;;17.28;81.33;99737.34;4997327;28;8859;-67
2023/08/01 01:50:49;;;;;;;;;2.00;1.75;;;;;17.28;81.27;99731.06;4989144;28;8889;-67
2023/08/01 01:53:16;;;;;;;;;3.25;3.25;;;;;17.27;81.09;99734.88;4990055;28;8894;-67
2023/08/01 01:55:43;;;;;;;;;3.25;2.75;;;;;17.26;80.87;99735.97;4988849;28;8839;-67
2023/08/01 01:58:10;;;;;;;;;3.00;2.00;;;;;17.27;80.77;99738.44;5006319;28;8821;-67
2023/08/01 02:00:37;;;;;;;;;2.00;1.50;;;;;17.26;80.85;99739.50;4991907;28;8868;-67
2023/08/01 02:03:07;;;;;;;;;3.75;2.25;;;;;17.26;80.66;99739.50;4991103;28;9590;-67
2023/08/01 02:05:33;;;;;;;;;2.50;1.25;;;;;17.25;80.87;99740.56;4988780;28;8839;-67
2023/08/01 02:08:00;;;;;;;;;4.75;2.75;;;;;17.24;81.15;99738.13;4984580;28;9552;-67
2023/08/01 02:10:26;;;;;;;;;2.25;2.25;;;;;17.25;81.27;99735.13;4977559;28;8977;-67
2023/08/01 02:12:53;;;;;;;;;2.25;2.00;;;;;17.26;80.69;99727.81;4992945;28;8824;-67
2023/08/01 02:15:19;;;;;;;;;2.00;2.00;;;;;17.28;80.83;99723.72;5001922;28;8857;-66
2023/08/01 02:17:46;;;;;;;;;1.50;1.50;;;;;17.30;80.45;99723.50;4982603;28;8929;-66
2023/08/01 02:20:15;;;;;;;;;4.50;2.25;;;;;17.30;80.27;99718.03;4994184;28;8840;-66
2023/08/01 02:22:42;;;;;;;;;1.25;1.00;;;;;17.31;79.77;99716.97;4995186;28;9541;-66
2023/08/01 02:25:08;;;;;;;;;1.50;1.00;;;;;17.29;79.59;99721.81;4994986;28;8849;-66
2023/08/01 02:27:35;;;;;;;;;1.00;1.00;;;;;17.28;79.30;99712.84;5011014;28;9116;-66
2023/08/01 02:30:02;;;;;;;;;1.00;1.00;;;;;17.31;78.83;99714.22;5010595;28;8901;-67
2023/08/01 02:32:28;;;;;;;;;2.50;1.00;;;;;17.33;78.47;99717.50;4991671;28;8827;-67
2023/08/01 02:34:57;;;;;;;;;2.00;2.00;;;;;17.35;78.57;99709.09;4994204;28;9606;-67
2023/08/01 02:37:24;;;;;;;;;1.50;1.25;;;;;17.34;78.09;99711.00;4995849;28;8852;-67
2023/08/01 02:39:50;;;;;;;;;2.00;2.00;;;;;17.35;78.31;99720.78;4995739;28;8840;-67
2023/08/01 02:42:17;;;;;;;;;5.50;2.25;;;;;17.35;78.26;99715.34;4996017;28;8844;-67
2023/08/01 02:44:44;;;;;;;;;1.00;1.00;;;;;17.33;78.16;99705.78;5008470;28;8843;-67
2023/08/01 02:47:10;;;;;;;;;1.75;1.75;;;;;17.34;78.23;99712.88;4995320;28;8867;-67
2023/08/01 02:49:37;;;;;;;;;1.75;1.75;;;;;17.34;78.24;99718.31;4998002;28;8835;-67
2023/08/01 02:52:03;;;;;;;;;1.00;1.00;;;;;17.34;78.06;99721.03;5011688;28;8861;-67
2023/08/01 02:54:30;;;;;;;;;1.00;1.00;;;;;17.33;78.10;99728.38;5011555;28;8839;-67
2023/08/01 02:56:56;;;;;;;;;2.00;1.00;;;;;17.34;78.13;99715.59;5025880;23;8982;-68
2023/08/01 02:59:24;;;;;;;;;1.00;1.00;;;;;17.34;78.07;99712.88;4995300;28;8855;-69
2023/08/01 03:01:50;;;;;;;;;1.75;1.75;;;;;17.34;78.59;99712.88;5001086;28;8854;-68
2023/08/01 03:04:16;;;;;;;;;1.00;1.00;;;;;17.30;78.54;99721.59;5004103;28;8895;-69
2023/08/01 03:06:45;;;;;;;;;0.00;0.00;;;;;17.31;78.41;99719.66;5010582;28;8849;-68
2023/08/01 03:09:12;;;;;;;;;1.00;1.00;;;;;17.30;78.60;99715.31;5032759;28;8892;-68
2023/08/01 03:11:38;;;;;;;;;2.00;1.00;;;;;17.29;78.36;99713.66;5015039;28;8830;-69
2023/08/01 03:14:05;;;;;;;;;1.00;1.00;;;;;17.27;78.47;99711.22;5012971;28;9590;-68
2023/08/01 03:16:31;;;;;;;;;1.00;1.00;;;;;17.27;78.65;99711.22;4993707;28;9533;-69
2023/08/01 03:19:04;;;;;;;;;0.00;0.00;;;;;17.26;78.74;99717.75;4988237;28;8856;-69
2023/08/01 03:21:34;;;;;;;;;1.25;1.00;;;;;17.23;78.92;99714.75;5012345;28;8836;-68
2023/08/01 03:24:02;;;;;;;;;1.75;1.00;;;;;17.22;79.07;99716.66;5013800;28;8848;-69
2023/08/01 03:26:29;;;;;;;;;2.00;1.00;;;;;17.21;79.09;99709.56;5027817;28;8837;-68
2023/08/01 03:28:56;;;;;;;;;1.75;1.00;;;;;17.23;79.60;99712.03;5028272;28;8857;-69
2023/08/01 03:31:23;;;;;;;;;3.00;1.00;;;;;17.20;79.37;99710.66;5028114;28;8857;-68
2023/08/01 03:33:49;;;;;;;;;2.00;2.00;;;;;17.18;79.94;99707.38;5013798;28;8834;-69
2023/08/01 03:36:16;;;;;;;;;2.00;2.00;;;;;17.16;79.69;99709.53;5014619;28;8862;-69
2023/08/01 03:38:44;;;;;;;;;2.25;2.25;;;;;17.16;79.84;99708.72;5001761;28;8828;-68
2023/08/01 03:41:10;;;;;;;;;1.00;1.00;;;;;17.17;80.05;99715.78;4994870;28;8824;-68
2023/08/01 03:43:37;;;;;;;;;4.75;3.00;;;;;17.18;79.87;99718.25;5015231;28;8838;-69
2023/08/01 03:46:05;;;;;;;;;7.50;5.75;;;;;17.16;79.79;99711.44;5010703;28;8830;-69
2023/08/01 03:48:31;;;;;;;;;5.00;3.50;;;;;17.19;80.09;99719.09;4995466;28;9559;-69
2023/08/01 03:50:58;;;;;;;;;3.00;3.00;;;;;17.22;79.72;99718.56;5026360;28;8842;-68
2023/08/01 03:53:26;;;;;;;;;2.00;2.00;;;;;17.22;80.02;99711.22;5029616;28;8845;-68
2023/08/01 03:55:52;;;;;;;;;4.75;3.75;;;;;17.23;79.82;99710.13;5024273;28;8851;-68
2023/08/01 03:58:18;;;;;;;;;5.25;3.00;;;;;17.23;79.98;99712.03;5009641;28;8864;-68
2023/08/01 04:00:45;;;;;;;;;6.00;3.00;;;;;17.24;79.74;99719.91;5022229;28;8841;-68
2023/08/01 04:03:11;;;;;;;;;4.00;3.00;;;;;17.23;79.86;99721.00;5031276;28;8826;-68
2023/08/01 04:05:38;;;;;;;;;1.50;1.50;;;;;17.24;80.16;99717.19;5005987;28;8849;-68
2023/08/01 04:08:05;;;;;;;;;5.50;5.50;;;;;17.24;80.00;99719.91;5007371;28;8877;-69
2023/08/01 04:10:31;;;;;;;;;8.50;3.00;;;;;17.23;80.39;99715.56;5022982;28;8834;-69
2023/08/01 04:12:58;;;;;;;;;3.25;3.25;;;;;17.24;80.12;99719.91;5031956;28;8851;-69
2023/08/01 04:15:24;;;;;;;;;4.00;4.00;;;;;17.24;80.26;99714.47;5011492;28;8833;-69
2023/08/01 04:17:51;;;;;;;;;2.75;2.75;;;;;17.24;80.23;99717.19;5025357;28;8834;-69
2023/08/01 04:20:17;;;;;;;;;3.50;3.50;;;;;17.27;80.30;99718.56;5030414;28;8840;-69
2023/08/01 04:22:44;;;;;;;;;3.50;3.00;;;;;17.25;80.24;99715.28;5024063;28;9657;-68
2023/08/01 04:25:10;;;;;;;;;4.00;4.00;;;;;17.22;80.47;99713.13;5011250;28;9000;-69
2023/08/01 04:27:37;;;;;;;;;4.50;2.75;;;;;17.20;80.35;99724.25;5018843;28;8940;-69
2023/08/01 04:30:04;;;;;;;;;3.50;2.75;;;;;17.18;80.31;99715.53;5022722;28;9858;-69
2023/08/01 04:32:31;;;;;;;;;3.50;1.75;;;;;17.17;80.80;99713.06;5010824;28;8869;-68
2023/08/01 04:34:57;;;;;;;;;4.00;3.00;;;;;17.14;81.38;99714.44;5031366;28;8846;-68
2023/08/01 04:37:25;;;;;;;;;5.00;3.00;;;;;17.13;82.01;99712.78;5024192;28;8885;-69
2023/08/01 04:39:52;;;;;;;;;3.75;2.75;;;;;17.10;82.28;99712.53;5026466;28;8841;-68
2023/08/01 04:42:18;;;;;;;;;2.50;2.50;;;;;17.10;82.81;99713.34;5019833;28;9542;-69
2023/08/01 04:44:45;;;;;;;;;3.00;3.00;;;;;17.09;82.83;99719.00;5029381;28;8838;-68
2023/08/01 04:47:11;;;;;;;;;4.75;3.75;;;;;17.02;83.06;99722.81;5030026;28;8840;-68
2023/08/01 04:49:37;;;;;;;;;2.75;2.00;;;;;16.99;83.55;99722.50;5006818;28;8832;-68
2023/08/01 04:52:05;;;;;;;;;2.00;2.00;;;;;16.98;83.72;99712.72;5023543;28;8948;-70
2023/08/01 04:54:34;;;;;;;;;3.00;3.00;;;;;16.94;83.32;99715.16;5021960;28;8848;-68
2023/08/01 04:57:00;;;;;;;;;3.00;3.00;;;;;16.91;83.70;99720.28;5003719;28;8959;-68
2023/08/01 04:59:26;;;;;;;;;3.50;2.00;;;;;16.89;83.81;99719.72;5004857;28;8937;-68
2023/08/01 05:01:53;;;;;;;;;5.25;2.00;;;;;16.88;83.72;99720.81;5017719;28;8832;-68
2023/08/01 05:04:19;;;;;;;;;1.50;1.50;;;;;16.88;84.25;99718.09;5011105;28;8842;-69
2023/08/01 05:06:46;;;;;;;;;2.50;2.50;;;;;16.91;84.11;99720.28;5018390;28;8911;-69
2023/08/01 05:09:12;;;;;;;;;4.25;3.75;;;;;16.92;84.16;99727.38;5008351;28;8858;-68
2023/08/01 05:11:39;;;;;;;;;2.25;1.25;;;;;16.94;83.91;99728.75;5022711;28;8845;-68
2023/08/01 05:14:05;;;;;;;;;1.75;1.00;;;;;16.95;84.08;99730.38;5029443;28;8845;-68
2023/08/01 05:16:32;;;;;;;;;2.25;2.00;;;;;16.91;84.02;99720.28;5005434;28;8833;-69
2023/08/01 05:18:58;;;;;;;;;2.75;2.75;;;;;16.91;84.17;99721.13;5017522;28;8847;-68
2023/08/01 05:21:25;;;;;;;;;2.00;2.00;;;;;16.95;84.28;99724.13;5007676;28;9550;-69
2023/08/01 05:23:51;;;;;;;;;3.00;2.00;;;;;16.94;84.05;99725.22;5027660;28;8828;-68
2023/08/01 05:26:18;;;;;;;;;2.25;1.00;;;;;16.91;83.99;99715.69;5011829;28;8837;-68
2023/08/01 05:28:44;;;;;;;;;3.00;3.00;;;;;16.92;84.31;99719.22;5003616;28;8883;-68
2023/08/01 05:31:11;;;;;;;;;3.50;2.00;;;;;16.90;83.90;99716.75;5009242;28;9656;-68
2023/08/01 05:33:37;;;;;;;;;2.00;2.00;;;;;16.92;83.93;99720.03;5018452;28;8946;-69
2023/08/01 05:36:04;;;;;;;;;2.25;2.25;;;;;16.92;83.80;99728.19;5006657;28;8911;-68
2023/08/01 05:38:30;;;;;;;;;6.50;3.00;;;;;16.89;83.63;99728.69;5006695;28;8844;-68
2023/08/01 05:40:57;;;;;;;;;3.25;2.50;;;;;16.89;83.85;99722.44;5010248;28;8867;-69
2023/08/01 05:43:23;;;;;;;;;5.00;2.50;;;;;16.86;83.41;99729.25;5016286;28;8844;-69
2023/08/01 05:45:50;;;;;;;;;1.75;1.75;;;;;16.83;83.58;99735.19;5006858;28;8829;-69
2023/08/01 05:48:19;;;;;;;;;1.00;1.00;;;;;16.84;83.73;99736.00;4993647;28;8990;-68
2023/08/01 05:50:45;;;;;;;;;3.00;3.00;;;;;16.83;83.75;99740.63;5000067;28;8931;-68
2023/08/01 05:53:12;;;;;;;;;3.00;3.00;;;;;16.87;83.74;99746.38;5006665;28;8939;-68
2023/08/01 05:55:38;;;;;;;;;3.50;2.00;;;;;16.87;83.58;99744.47;5007606;28;8940;-68
2023/08/01 05:58:05;;;;;;;;;1.25;1.00;;;;;16.89;83.09;99747.72;5008106;28;8868;-68
2023/08/01 06:00:31;;;;;;;;;1.75;1.75;;;;;16.94;83.27;99750.50;5016775;28;8829;-68
2023/08/01 06:02:58;;;;;;;;;3.25;2.00;;;;;16.96;83.03;99751.03;4996448;28;8840;-68
2023/08/01 06:05:25;;;;;;;;;0.25;0.00;;;;;16.96;82.90;99750.22;5002489;28;8857;-68
2023/08/01 06:07:51;;;;;;;;;1.00;1.00;;;;;16.94;82.97;99750.50;5018810;28;8857;-68
2023/08/01 06:10:18;;;;;;;;;2.75;2.75;;;;;16.93;82.50;99751.56;5010086;28;8848;-68
2023/08/01 06:12:45;;;;;;;;;2.50;2.50;;;;;16.95;82.60;99754.84;5019501;28;8824;-68
2023/08/01 06:15:11;;;;;;;;;2.25;2.25;;;;;16.95;82.59;99757.56;5021343;28;8834;-68
2023/08/01 06:17:38;;;;;;;;;2.00;2.00;;;;;16.97;82.30;99763.53;5005114;28;8840;-69
2023/08/01 06:20:05;;;;;;;;;3.00;3.00;;;;;16.91;81.94;99764.59;5022946;28;8861;-68
2023/08/01 06:22:31;;;;;;;;;2.75;2.00;;;;;16.94;82.40;99774.16;5013212;28;8857;-69
2023/08/01 06:24:58;;;;;;;;;2.00;1.50;;;;;16.98;81.85;99776.06;5029432;28;8911;-68
2023/08/01 06:27:25;;;;;;;;;2.00;2.00;;;;;17.01;81.67;99772.00;5025279;28;8841;-69
2023/08/01 06:29:51;;;;;;;;;1.75;1.75;;;;;17.03;81.41;99778.00;5023015;28;8830;-68
2023/08/01 06:32:17;;;;;;;;;1.50;1.50;;;;;17.02;80.92;99770.94;5019630;28;8844;-68
2023/08/01 06:34:44;;;;;;;;;3.25;2.00;;;;;17.04;80.62;99764.13;5026660;28;8837;-68
2023/08/01 06:37:10;;;;;;;;;2.00;2.00;;;;;17.11;80.69;99771.25;5023977;28;8845;-68
2023/08/01 06:39:37;;;;;;;;;3.00;2.25;;;;;17.14;80.15;99770.72;5025423;28;8831;-68
2023/08/01 06:42:04;;;;;;;;;2.00;2.00;;;;;17.18;80.20;99771.84;5025296;28;8844;-69
2023/08/01 06:44:30;;;;;;;;;2.75;2.25;;;;;17.22;79.81;99772.94;5020389;28;8899;-69
2023/08/01 06:46:57;;;;;;;;;5.00;1.00;;;;;17.22;79.87;99771.03;5011012;28;8980;-68
2023/08/01 06:49:23;;;;;;;;;1.50;1.50;;;;;17.23;79.12;99771.84;5025593;28;8861;-69
2023/08/01 06:51:50;;;;;;;;;1.00;1.00;;;;;17.22;78.81;99772.94;5024390;28;9632;-68
2023/08/01 06:54:16;;;;;;;;;1.75;1.75;;;;;17.21;78.91;99769.38;5000551;28;8911;-68
2023/08/01 06:56:47;;;;;;;;;2.25;1.50;;;;;17.19;79.01;99766.13;5014992;28;8932;-68
2023/08/01 06:59:14;;;;;;;;;4.50;2.25;;;;;17.21;78.66;99774.00;4995774;28;8856;-68
2023/08/01 07:01:43;;;;;;;;;4.00;1.50;;;;;17.26;78.69;99780.31;5019872;28;8833;-69
2023/08/01 07:04:10;;;;;;;;;2.75;2.75;;;;;17.21;78.52;99782.97;5021126;28;8842;-69
2023/08/01 07:06:37;;;;;;;;;3.50;2.50;;;;;17.20;78.64;99775.91;4997728;28;8894;-68
2023/08/01 07:09:04;;;;;;;;;2.50;1.00;;;;;17.23;78.55;99780.03;5007303;28;8883;-68
2023/08/01 07:11:31;;;;;;;;;2.00;1.75;;;;;17.25;78.87;99781.38;5010568;28;8834;-69
2023/08/01 07:13:58;;;;;;;;;1.00;1.00;;;;;17.27;78.98;99784.66;5032244;28;8841;-69
2023/08/01 07:16:24;;;;;;;;;2.00;2.00;;;;;17.25;79.19;99786.81;5025751;28;8841;-69
2023/08/01 07:18:51;;;;;;;;;2.00;2.00;;;;;17.27;79.09;99784.66;5031271;28;8884;-69
2023/08/01 07:21:17;;;;;;;;;5.00;2.75;;;;;17.22;79.36;99787.38;5009928;28;8985;-68
2023/08/01 07:23:44;;;;;;;;;2.25;2.00;;;;;17.20;79.30;99788.69;5028618;28;8868;-68
2023/08/01 07:26:11;;;;;;;;;1.50;1.50;;;;;17.26;79.22;99787.66;5031796;28;8825;-69
2023/08/01 07:28:41;;;;;;;;;5.75;3.00;;;;;17.33;79.28;99795.56;5015117;28;8864;-69
2023/08/01 07:31:09;;;;;;;;;5.75;3.00;;;;;17.37;79.16;99789.31;5032243;28;8857;-68
2023/08/01 07:33:36;;;;;;;;;2.25;1.25;;;;;17.38;78.47;99792.84;5000759;28;8863;-68
2023/08/01 07:36:03;;;;;;;;;3.00;2.00;;;;;17.35;78.38;99794.22;4996462;28;8842;-69
2023/08/01 07:38:33;;;;;;;;;4.25;2.75;;;;;17.37;78.36;99793.94;5013970;28;9636;-69
2023/08/01 07:41:04;;;;;;;;;3.50;3.25;;;;;17.32;78.26;99807.53;5031641;28;8869;-68
2023/08/01 07:43:30;;;;;;;;;3.50;3.50;;;;;17.28;78.73;99807.22;5014536;28;8841;-69
2023/08/01 07:45:58;;;;;;;;;2.00;1.75;;;;;17.22;78.94;99803.69;5030481;28;9728;-68
2023/08/01 07:48:25;;;;;;;;;2.00;2.00;;;;;17.21;79.36;99806.66;5012011;28;8891;-68
2023/08/01 07:50:51;;;;;;;;;1.25;1.25;;;;;17.21;79.52;99815.63;5012633;28;8843;-68
2023/08/01 07:53:18;;;;;;;;;3.50;2.75;;;;;17.23;79.80;99807.22;5028409;28;8864;-68
2023/08/01 07:55:45;;;;;;;;;2.50;1.25;;;;;17.27;80.11;99811.03;5012128;28;8858;-69
2023/08/01 07:58:11;;;;;;;;;2.50;2.50;;;;;17.24;80.00;99822.44;5012332;28;8832;-69
2023/08/01 08:00:38;;;;;;;;;1.50;1.50;;;;;17.16;80.03;99818.31;4994326;28;8840;-68
2023/08/01 08:03:05;;;;;;;;;3.00;3.00;;;;;17.19;80.12;99823.22;4979842;28;8844;-68
2023/08/01 08:05:32;;;;;;;;;3.00;3.00;;;;;17.22;80.49;99824.63;5011764;28;9744;-68
2023/08/01 08:07:58;;;;;;;;;2.00;2.00;;;;;17.18;80.61;99824.31;5000250;28;8842;-68
2023/08/01 08:10:25;;;;;;;;;5.00;2.25;;;;;17.19;80.27;99819.69;5031727;28;8826;-68
2023/08/01 08:12:51;;;;;;;;;1.00;1.00;;;;;17.27;80.29;99819.19;5031929;28;8835;-68
2023/08/01 08:15:19;;;;;;;;;1.00;1.00;;;;;17.37;80.27;99815.72;5031667;28;8826;-68
2023/08/01 08:17:46;;;;;;;;;3.25;3.25;;;;;17.43;80.17;99820.94;5032097;28;9534;-68
2023/08/01 08:20:13;;;;;;;;;3.00;2.00;;;;;17.51;80.32;99823.13;4998958;28;8852;-68
2023/08/01 08:22:39;;;;;;;;;6.50;6.25;;;;;17.50;79.96;99826.09;5011892;28;8843;-68
2023/08/01 08:25:06;;;;;;;;;2.25;2.25;;;;;17.52;80.07;99824.78;5024569;28;9636;-68
2023/08/01 08:27:32;;;;;;;;;3.25;2.50;;;;;17.51;79.88;99828.59;5013745;28;8841;-68
2023/08/01 08:29:59;;;;;;;;;3.50;3.25;;;;;17.53;79.73;99825.59;5013276;28;8865;-68
2023/08/01 08:32:25;;;;;;;;;2.00;2.00;;;;;17.49;79.91;99822.56;5012524;28;8829;-68
2023/08/01 08:34:52;;;;;;;;;2.00;2.00;;;;;17.47;80.02;99835.63;5027524;28;8900;-68
2023/08/01 08:37:18;;;;;;;;;4.00;3.50;;;;;17.41;79.59;99825.78;5006152;28;8842;-68
2023/08/01 08:39:46;;;;;;;;;6.75;2.00;;;;;17.38;79.63;99837.22;5013546;28;8834;-69
2023/08/01 08:42:13;;;;;;;;;2.75;2.00;;;;;17.39;79.83;99844.31;5024085;28;8926;-68
2023/08/01 08:44:43;;;;;;;;;3.25;3.25;;;;;17.44;79.85;99835.34;5023370;28;8857;-68
2023/08/01 08:47:12;;;;;;;;;2.50;2.50;;;;;17.49;79.55;99844.34;5011287;28;8861;-68
2023/08/01 08:49:40;;;;;;;;;3.50;3.00;;;;;17.55;79.05;99834.31;4993539;28;8881;-68
2023/08/01 08:52:07;;;;;;;;;4.75;3.00;;;;;17.50;78.52;99840.56;5011324;28;8923;-69
2023/08/01 08:54:35;;;;;;;;;2.00;2.00;;;;;17.44;78.45;99851.66;5011065;28;8840;-68
2023/08/01 08:57:06;;;;;;;;;3.00;3.00;;;;;17.35;78.02;99854.06;5004377;28;9610;-69
2023/08/01 08:59:33;;;;;;;;;1.25;1.25;;;;;17.38;77.95;99845.38;5012496;28;8919;-69
2023/08/01 09:02:01;;;;;;;;;2.50;2.50;;;;;17.46;77.76;99853.06;5030471;28;8844;-68
2023/08/01 09:04:27;;;;;;;;;1.00;1.00;;;;;17.47;76.75;99860.13;5030987;28;8904;-68
2023/08/01 09:07:08;;;;;;;;;1.75;1.75;;;;;17.58;76.62;99854.72;5030746;28;8868;-68
2023/08/01 09:09:35;;;;;;;;;2.25;1.00;;;;;17.65;75.88;99849.88;4993321;28;8860;-68
2023/08/01 09:12:02;;;;;;;;;3.25;3.00;;;;;17.68;75.26;99857.50;5010593;28;8840;-69
2023/08/01 09:14:29;;;;;;;;;2.50;2.50;;;;;17.76;75.42;99862.47;5012418;28;8876;-69
2023/08/01 09:16:55;;;;;;;;;3.00;2.00;;;;;17.85;74.94;99863.59;5015191;28;8828;-69
2023/08/01 09:19:24;;;;;;;;;2.50;2.00;;;;;17.85;74.50;99865.50;5010776;28;8901;-68
2023/08/01 09:21:51;;;;;;;;;2.25;1.00;;;;;17.87;74.48;99863.34;4992961;28;8866;-68
2023/08/01 09:24:19;;;;;;;;;3.00;2.00;;;;;17.97;74.04;99871.53;5010881;28;8906;-68
2023/08/01 09:26:47;;;;;;;;;3.00;3.00;;;;;17.98;73.96;99865.81;5010853;28;8939;-68
2023/08/01 09:29:17;;;;;;;;;2.75;2.75;;;;;18.01;73.93;99878.91;5013939;28;8895;-69
2023/08/01 09:31:43;;;;;;;;;1.75;1.75;;;;;18.00;73.74;99871.81;5010294;28;8848;-69
2023/08/01 09:34:22;;;;;;;;;3.50;2.00;;;;;18.08;74.31;99886.03;5000020;28;8908;-68
2023/08/01 09:36:50;;;;;;;;;3.00;3.00;;;;;18.00;73.85;99884.63;5012463;28;8891;-68
2023/08/01 09:39:19;;;;;;;;;2.00;2.00;;;;;17.89;74.01;99888.38;5021871;28;8848;-68
2023/08/01 09:41:56;;;;;;;;;2.00;2.00;;;;;17.91;74.13;99886.22;5012804;28;8824;-69
2023/08/01 09:44:22;;;;;;;;;2.00;2.00;;;;;18.04;74.41;99883.00;5010460;28;8858;-69
2023/08/01 09:47:07;;;;;;;;;2.75;2.75;;;;;18.14;73.51;99879.47;5010212;28;9597;-68
2023/08/01 09:49:36;;;;;;;;;2.75;2.00;;;;;18.30;73.09;99894.78;5010316;28;8902;-69
2023/08/01 09:52:03;;;;;;;;;2.50;2.50;;;;;18.33;72.52;99879.81;5009912;28;8840;-69
2023/08/01 09:54:29;;;;;;;;;3.00;3.00;;;;;18.25;72.23;99884.69;5012689;28;8916;-69
2023/08/01 09:56:56;;;;;;;;;2.75;2.75;;;;;18.24;72.33;99885.78;5010561;28;8863;-68
2023/08/01 09:59:25;;;;;;;;;1.75;1.75;;;;;18.35;72.53;99886.66;5010060;28;8875;-68
2023/08/01 10:01:54;;;;;;;;;1.00;1.00;;;;;18.39;72.38;99893.19;5010132;28;8832;-68
2023/08/01 10:04:29;;;;;;;;;3.00;3.00;;;;;18.31;72.31;99901.91;5010271;28;8862;-69
2023/08/01 10:07:02;;;;;;;;;3.00;2.00;;;;;18.37;72.79;99902.72;4992786;28;8867;-68
2023/08/01 10:09:30;;;;;;;;;5.50;2.00;;;;;18.44;72.67;99900.56;5018875;28;8880;-68
2023/08/01 10:11:58;;;;;;;;;2.25;2.25;;;;;18.52;72.24;99902.75;5012113;28;8975;-69
2023/08/01 10:14:25;;;;;;;;;3.00;2.50;;;;;18.50;71.19;99907.66;5012240;28;8976;-69
2023/08/01 10:16:54;;;;;;;;;2.75;2.75;;;;;18.61;71.15;99906.59;5012653;28;8845;-69
2023/08/01 10:19:21;;;;;;;;;3.00;3.00;;;;;18.59;71.00;99911.47;5029281;28;8825;-69
2023/08/01 10:21:49;;;;;;;;;6.00;3.00;;;;;18.64;70.81;99910.69;5008692;28;8828;-69
2023/08/01 10:24:17;;;;;;;;;2.00;2.00;;;;;18.64;70.23;99910.69;4992243;28;8844;-68
2023/08/01 10:26:46;;;;;;;;;2.25;2.00;;;;;18.62;69.79;99921.84;4994797;28;8879;-68
2023/08/01 10:29:13;;;;;;;;;3.50;3.50;;;;;18.56;69.68;99916.66;4996710;28;8918;-67
2023/08/01 10:31:50;;;;;;;;;2.75;2.75;;;;;18.47;69.53;99917.19;5013581;28;8876;-68
2023/08/01 10:34:17;;;;;;;;;2.50;2.50;;;;;18.41;69.59;99925.63;5032387;28;8896;-68
2023/08/01 10:36:53;;;;;;;;;3.50;2.75;;;;;18.33;69.88;99917.97;5025908;28;8866;-67
2023/08/01 10:39:25;;;;;;;;;3.00;2.00;;;;;18.33;70.27;99926.94;4999517;28;8834;-67
2023/08/01 10:41:59;;;;;;;;;2.50;2.50;;;;;18.34;70.81;99923.13;5033127;28;9590;-67
2023/08/01 10:44:27;;;;;;;;;1.25;1.25;;;;;18.41;71.02;99922.88;5033337;28;8911;-67
2023/08/01 10:46:58;;;;;;;;;5.25;3.00;;;;;18.43;71.41;99932.44;5032629;28;8838;-67
2023/08/01 10:49:37;;;;;;;;;3.25;3.25;;;;;18.38;70.46;99931.59;5032316;28;8845;-67
2023/08/01 10:52:27;;;;;;;;;6.25;2.25;;;;;18.40;70.14;99935.69;5014663;28;8848;-67
2023/08/01 10:55:01;;;;;;;;;3.00;2.25;;;;;18.35;69.99;99943.88;5033464;28;8826;-67
2023/08/01 10:57:29;;;;;;;;;1.00;1.00;;;;;18.35;70.08;99945.75;5033049;28;8981;-66
2023/08/01 10:59:59;;;;;;;;;2.00;2.00;;;;;18.26;71.11;99954.44;5015046;28;8837;-67
2023/08/01 11:02:28;;;;;;;;;3.00;1.00;;;;;18.21;71.86;99962.59;5008993;28;8836;-67
2023/08/01 11:05:06;;;;;;;;;3.75;2.00;;;;;18.15;72.10;99963.69;5021753;28;8837;-66
2023/08/01 11:07:34;;;;;;;;;4.00;2.25;;;;;18.17;72.64;99957.94;5025659;28;8856;-66
2023/08/01 11:10:03;;;;;;;;;3.75;3.50;;;;;18.12;73.06;99966.09;5012840;28;9553;-67
2023/08/01 11:12:33;;;;;;;;;2.00;2.00;;;;;18.02;74.09;99969.59;5012984;28;8930;-67
2023/08/01 11:15:00;;;;;;;;;3.25;3.00;;;;;17.90;75.32;99972.50;4995735;28;9604;-67
2023/08/01 11:17:27;;;;;;;;;3.50;3.25;;;;;17.85;75.99;99963.50;5013095;28;8947;-67
2023/08/01 11:20:05;;;;;;;;;3.00;3.00;;;;;17.88;76.37;99968.44;5009015;28;8957;-66
2023/08/01 11:22:31;;;;;;;;;3.00;2.00;;;;;17.87;76.95;99973.06;5015673;28;9565;-67
2023/08/01 11:24:58;;;;;;;;;2.00;2.00;;;;;17.87;77.43;99970.34;5027617;28;9663;-67
2023/08/01 11:27:26;;;;;;;;;2.75;2.75;;;;;17.91;77.57;99968.72;5012854;28;8832;-67
2023/08/01 11:29:53;;;;;;;;;5.50;3.00;;;;;17.94;77.73;99964.63;5012465;28;8848;-66
2023/08/01 11:32:20;;;;;;;;;1.25;1.25;;;;;17.96;77.83;99968.75;5012759;28;8856;-67
2023/08/01 11:34:47;;;;;;;;;4.50;2.25;;;;;17.99;77.79;99979.13;5023729;28;8982;-67
2023/08/01 11:37:19;;;;;;;;;2.75;1.50;;;;;18.02;77.63;99973.13;5013404;28;8899;-67
2023/08/01 11:39:47;;;;;;;;;1.25;1.25;;;;;18.15;77.35;99968.28;5013807;28;8825;-67
2023/08/01 11:42:16;;;;;;;;;2.75;2.75;;;;;18.27;77.07;99967.00;5014771;28;8822;-67